Terminal Aerodrome Forecast
Issued by NWS

Home | Current Version | Previous Version | Text Only | Print | Product List | Glossary On
Versions: 1 2 3 4 5 6 7 8 9 10 11 12 13 14
000
FTUS43 KILX 191722
TAFBMI
TAF
KBMI 191722Z 1918/2018 04010KT 4SM -RA BR BKN035
     FM200300 27012KT 4SM BR VCSH OVC025
     FM200600 24006KT 5SM BR VCSH OVC015
     FM200900 28011KT P6SM OVC009
     FM201400 31015KT P6SM SCT015 BKN200=

USA.gov is the U.S. government's official web portal to all federal, state and local government web resources and services.